This is the latest recevied weather packets stored in our database for station/object DO2DV-13. If no packets are shown the sender has not sent any weather packets the latest 10 day(s).
| Time | Temp. | Humidity | Pressure | Rain* | Wind** | Luminosity | Snow |
|---|---|---|---|---|---|---|---|
| 1777359080 | 13.89° C | 50% | 1017.6 hPa | 0 mm | - | 197 W/m² | - |
| 1777355432 | 7.78° C | 78% | 1017.6 hPa | 0 mm | - | 41 W/m² | - |
| 1777351271 | 4.44° C | 91% | 1017 hPa | 0 mm | - | 9 W/m² | - |
| 1777348844 | 5° C | 89% | 1017.2 hPa | 0 mm | - | 0 W/m² | - |
| 1777347671 | 5° C | 89% | 1017.3 hPa | 0 mm | - | 0 W/m² | - |
| 1777346475 | 5.56° C | 87% | 1017.3 hPa | 0 mm | - | 0 W/m² | - |
| 1777345879 | 5° C | 88% | 1017.3 hPa | 0 mm | - | 0 W/m² | - |
| 1777342231 | 6.11° C | 86% | 1017.5 hPa | 0 mm | - | 0 W/m² | - |
| 1777341656 | 6.11° C | 85% | 1017.6 hPa | 0 mm | - | 0 W/m² | - |
| 1777341079 | 6.11° C | 85% | 1017.6 hPa | 0 mm | - | 0 W/m² | - |
| 1777340439 | 6.11° C | 84% | 1017.6 hPa | 0 mm | - | 0 W/m² | - |
| 1777332632 | 6.67° C | 83% | 1018.2 hPa | 0 mm | - | 0 W/m² | - |
| 1777314668 | 15.56° C | 46% | 1018.8 hPa | 0 mm | - | 3 W/m² | - |
| 1777312280 | 17.22° C | 40% | 1019.1 hPa | 0 mm | - | 27 W/m² | - |
| 1777309847 | 18.33° C | 33% | 1019 hPa | 0 mm | - | 62 W/m² | - |
| 1777309272 | 18.33° C | 33% | 1019.3 hPa | 0 mm | - | 71 W/m² | - |
| 1777307480 | 18.89° C | 33% | 1019.3 hPa | 0 mm | - | 97 W/m² | - |
| 1777299032 | 20° C | 31% | 1020.3 hPa | 0 mm | - | 271 W/m² | - |
| 1777291272 | 18.89° C | 33% | 1021.7 hPa | 0 mm | - | 339 W/m² | - |
| 1777290056 | 18.89° C | 32% | 1021.8 hPa | 0 mm | - | 518 W/m² | - |
| 1777289480 | 18.33° C | 31% | 1021.8 hPa | 0 mm | - | 557 W/m² | - |
| 1777285853 | 18.33° C | 36% | 1022.1 hPa | 0 mm | - | 693 W/m² | - |
| 1777283465 | 17.22° C | 38% | 1022.3 hPa | 0 mm | - | 693 W/m² | - |
| 1777275064 | 12.22° C | 60% | 1022.7 hPa | 0 mm | - | 322 W/m² | - |
| 1777273848 | 11.11° C | 63% | 1022.9 hPa | 0 mm | - | 251 W/m² | - |
* Rain latest hour (hover to see other rain measurements)
** Current wind speed in m/s (hover to see current wind gust speed)